Pagrindinis puslapis
METAR-TAF:

METAR-TAF

Oro uostai :

Lamecija Termė, Italija

platuma: 38-54N, ilguma: 016-15E, Aukštis: 15 m

Dabartinis oras

Ataskaita buvo paskelbta 42 minutes, ne 18:50 UTC
Vėjas 3 kt iš Šiaurės, svyruoja nuo Šiaurės/Šiaurės Vakarų ir Šiaurės Rytų
Temperatūra 19°C
Drėgmė 73%
Slėgis 1014 hPa
Matomumas 10 km arba daugiau

METAR: LICA 301850Z AUTO 01003KT 330V050 9999 FEW050/// 19/14 Q1014

Laikas: 21:32 (19:32 UTC)

Prognozė

Ataskaita buvo paskelbta 2 valandos ir 32 minutes, ne 17:00 UTC
Prognozė galioja nuo 30 metu 18 UTC su 31 metu 18 UTC
Vėjas 10 kt iš Rytų
Matomumas 10 km arba daugiau
Išsisklaidę debesys ne aukštis 3000 ft
Tapsmas
nuo 30 metu 18 UTC su 30 metu 20 UTC
Vėjas 5 kt nuo kintamojo kryptimis
Tapsmas
nuo 31 metu 08 UTC su 31 metu 10 UTC
Vėjas 10 kt iš Vakarų
Laikinai
nuo 31 metu 08 UTC su 31 metu 12 UTC
lietus

TAF: LICA 301700Z 3018/3118 08010KT 9999 SCT030 BECMG 3018/3020 VRB05KT BECMG 3108/3110 27010KT TEMPO 3108/3112 SHRA

Orai ataskaitas ir orų prognozės (METAR, TAF).

turimą stotys yra geltonos ir raudonos taškus žemėlapyje.

Perkelti pele per norėdami pamatyti stoties vardą.

Tada spustelėkite, norėdami matyti oro stebėjimo ir prognozės.

Norėdami pakeisti žemėlapį: spustelėkite ant žalios mygtukų su juodo kryžiaus žemyn,; žalią mygtuką su brūkšneliu, jei norite nutolinti; arba žalių rodyklių gretimoms žemėlapius.


METAR-TAF: